• Join FlightAware (Why Join?)
  • Login
  • US Flag 
12:56PM EST


 

Airport Tracker/Info


-or-


 

Live Flight TrackerFlight Track Log ✈ N406CT ✈ 11-May-2013 ✈ KOWB - KSTP

Flight Track Log - Related Links

Times and Time Zones

All times are in EDT time to prevent confusion due to time zone crossing. See the N406CT flight status page for this flight to view local times or setup timezone preferences in your user account.

Time Position Orientation Groundspeed Altitude Reporting Facility
EDT Latitude Longitude Course Direction KTS MPH feet Rate Location/Type
11:17AM 37.7867 -87.2358 294° West 174 200 4,400  Level Indianapolis Center
11:18AM 37.8050 -87.3144 286° West 187 215 6,900 2,100 Climbing Indianapolis Center
11:19AM 37.8267 -87.3806 293° West 197 227 8,800 1,740 Climbing Indianapolis Center
11:20AM 37.8458 -87.4542 288° West 213 245 10,500 1,680 Climbing Indianapolis Center
11:21AM 38.1216 -87.4443 330° Northwest  Level Estimated
11:21AM 37.8658 -87.5297 289° West 223 257 12,300  Level Indianapolis Center
11:22AM 37.8867 -87.6047 289° West 225 259 14,000 1,620 Climbing Indianapolis Center
11:23AM 37.9072 -87.6803 289° West 226 260 15,700 1,680 Climbing Indianapolis Center
11:24AM 37.9281 -87.7561 289° West 226 260 17,500 1,620 Climbing Indianapolis Center
11:25AM 37.9853 -87.7936 333° Northwest 241 277 19,100 1,560 Climbing Indianapolis Center
11:26AM 38.0436 -87.8300 334° Northwest 233 268 20,700 1,260 Climbing Indianapolis Center
11:27AM 38.1014 -87.8733 329° Northwest 240 276 21,700 900 Climbing Indianapolis Center
11:28AM 38.1672 -87.9186 332° Northwest 263 303 22,600 780 Climbing Indianapolis Center
11:29AM 38.2372 -87.9683 331° Northwest 282 325 23,400 840 Climbing Indianapolis Center
11:30AM 38.3258 -88.0292 332° Northwest 297 342 24,400 900 Climbing Indianapolis Center
11:31AM 38.4022 -88.0797 333° Northwest 304 350 25,300 720 Climbing Indianapolis Center
11:32AM 38.4636 -88.1233 331° Northwest 308 354 25,900 720 Climbing Kansas City Center
11:33AM 38.5400 -88.1769 331° Northwest 311 358 26,800 900 Climbing Kansas City Center
11:34AM 38.6356 -88.2414 332° Northwest 317 365 27,800 840 Climbing Kansas City Center
11:35AM 38.7147 -88.2947 332° Northwest 318 366 28,600 780 Climbing Kansas City Center
11:36AM 38.7936 -88.3483 332° Northwest 318 366 29,500 780 Climbing Kansas City Center
11:37AM 38.8717 -88.4033 331° Northwest 319 367 30,300 780 Climbing Kansas City Center
11:38AM 38.9517 -88.4558 333° Northwest 319 367 31,100 720 Climbing Kansas City Center
11:39AM 39.0281 -88.5097 331° Northwest 317 365 31,900 780 Climbing Kansas City Center
11:40AM 39.1036 -88.5628 331° Northwest 313 360 32,800 840 Climbing Kansas City Center
11:41AM 39.1769 -88.6128 332° Northwest 307 353 33,700 840 Climbing Kansas City Center
11:42AM 39.2503 -88.6636 332° Northwest 304 350 34,600 720 Climbing Kansas City Center
11:43AM 39.3336 -88.7217 332° Northwest 293 337 35,300 540 Climbing Kansas City Center
11:44AM 39.4042 -88.7719 331° Northwest 291 335 35,800 180 Climbing Kansas City Center
11:46AM 39.5425 -88.8706 331° Northwest 305 351 36,000 60 Climbing Chicago Center
11:47AM 39.6217 -88.9247 332° Northwest 319 367 36,000  Level Chicago Center
11:49AM 39.7206 -88.9931 332° Northwest 331 381 36,000  Level Kansas City Center
11:50AM 39.8033 -89.0522 331° Northwest 338 389 36,000  Level Kansas City Center
11:51AM 39.8858 -89.1122 331° Northwest 339 390 36,000  Level Kansas City Center
11:52AM 39.9708 -89.1719 332° Northwest 345 397 36,000  Level Kansas City Center
11:53AM 40.0567 -89.2650 320° Northwest 336 387 36,000  Level Kansas City Center
11:54AM 40.1217 -89.3528 314° West 337 388 36,000  Level Kansas City Center
11:55AM 40.1894 -89.4378 316° Northwest 336 387 36,000  Level Kansas City Center
11:56AM 40.2425 -89.5053 316° Northwest 336 387 36,000  Level Chicago Center
11:57AM 40.3089 -89.5889 316° Northwest 333 383 36,000  Level Chicago Center
11:58AM 40.3900 -89.6889 317° Northwest 333 383 36,000  Level Chicago Center
11:59AM 40.4564 -89.7736 316° Northwest 331 381 36,000  Level Chicago Center
12:00PM 40.5233 -89.8569 317° Northwest 334 384 36,000  Level Chicago Center
12:01PM 40.5886 -89.9411 316° Northwest 331 381 36,000  Level Chicago Center
12:02PM 40.6553 -90.0236 317° Northwest 331 381 36,000  Level Chicago Center
12:03PM 40.7217 -90.1072 316° Northwest 330 380 36,000  Level Chicago Center
12:04PM 40.7981 -90.2092 315° West 328 377 36,000  Level Chicago Center
12:05PM 40.8594 -90.2811 318° Northwest 332 382 36,000  Level Chicago Center
12:06PM 40.9250 -90.3664 316° Northwest 330 380 36,000  Level Chicago Center
12:07PM 40.9886 -90.4508 315° West 326 375 36,000  Level Chicago Center
12:08PM 41.0544 -90.5347 316° Northwest 328 377 36,000  Level Chicago Center
12:09PM 41.1328 -90.6353 316° Northwest 326 375 36,000  Level Chicago Center
12:10PM 41.1975 -90.7172 316° Northwest 323 372 36,000  Level Chicago Center
12:11PM 41.2606 -90.8000 315° West 319 367 36,000  Level Chicago Center
12:12PM 41.3239 -90.8808 316° Northwest 318 366 36,000  Level Chicago Center
12:13PM 41.3861 -90.9625 315° West 314 361 36,000  Level Chicago Center
12:14PM 41.4481 -91.0439 315° West 314 361 36,000  Level Chicago Center
12:15PM 41.5106 -91.1250 316° Northwest 313 360 36,000  Level Chicago Center
12:16PM 41.5839 -91.2247 315° West 316 364 36,000  Level Chicago Center
12:17PM 41.6472 -91.3064 316° Northwest 318 366 36,000  Level Chicago Center
12:18PM 41.7108 -91.3897 316° Northwest 321 369 36,000  Level Chicago Center
12:19PM 41.7739 -91.4725 316° Northwest 319 367 36,000  Level Chicago Center
12:20PM 41.8369 -91.5572 315° West 323 372 36,000  Level Chicago Center
12:21PM 41.9008 -91.6375 317° Northwest 318 366 36,000  Level Chicago Center
12:22PM 41.9747 -91.7392 314° West 318 366 36,000  Level Chicago Center
12:23PM 42.0361 -91.8242 314° West 318 366 36,000 -60 Level Chicago Center
12:24PM 42.0983 -91.9058 316° Northwest 315 362 35,900 -360 Descending Chicago Center
12:25PM 42.1617 -91.9911 315° West 322 371 35,300 -660 Descending Chicago Center
12:27PM 42.2275 -92.0811 315° West 334 384 34,600 -660 Descending Chicago Center
12:28PM 42.2956 -92.1733 315° West 341 392 34,000 -600 Descending Minneapolis Center
12:29PM 42.3639 -92.2642 316° Northwest 344 396 33,500 -720 Descending Minneapolis Center
12:30PM 42.4283 -92.3569 313° West 343 395 32,600 -780 Descending Minneapolis Center
12:31PM 42.5086 -92.4653 315° West 341 392 32,000 -300 Descending Minneapolis Center
12:32PM 42.5747 -92.5558 315° West 339 390 32,000  Level Minneapolis Center
12:33PM 42.6375 -92.6456 314° West 332 382 32,000  Level Minneapolis Center
12:34PM 42.7011 -92.7317 315° West 326 375 32,000  Level Minneapolis Center
12:35PM 42.7631 -92.8208 313° West 326 375 32,000 -120 Level Minneapolis Center
12:36PM 42.8256 -92.9094 314° West 327 376 31,800 -660 Descending Minneapolis Center
12:37PM 42.9053 -93.0200 315° West 341 392 30,700 -960 Descending Minneapolis Center
12:38PM 42.9722 -93.1131 315° West 346 398 29,900 -960 Descending Minneapolis Center
12:39PM 43.0383 -93.2058 314° West 343 395 28,800 -1,080 Descending Minneapolis Center
12:40PM 43.1044 -93.2992 314° West 345 397 27,700 -1,140 Descending Minneapolis Center
12:41PM 43.1683 -93.3900 314° West 335 386 26,500 -1,260 Descending Minneapolis Center
12:42PM 43.2411 -93.4956 313° West 321 369 25,100 -1,200 Descending Minneapolis Center
12:43PM 43.3253 -93.5222 347° North 336 387 24,100 -1,140 Descending Minneapolis Center
12:44PM 43.4175 -93.5050 North 340 391 22,800 -1,560 Descending Minneapolis Center
12:45PM 43.5069 -93.4975 North 328 377 21,000 -1,800 Descending Minneapolis Center
12:46PM 43.5964 -93.4964 North 307 353 19,100 -1,620 Descending Minneapolis Center
12:47PM 43.6753 -93.5039 356° North 290 334 17,700 -1,620 Descending Minneapolis Center
12:48PM 43.7522 -93.5047 360° North 278 320 15,800 -2,040 Descending Minneapolis Center
12:49PM 43.8422 -93.4928 North 272 313 13,500 -2,040 Descending Minneapolis Center
12:50PM 43.9186 -93.4903 North 275 316 11,700 -1,320 Descending Minneapolis Center
12:51PM 43.9764 -93.4958 356° North 268 308 10,900 -1,440 Descending Minneapolis Center
12:52PM 44.0572 -93.4903 North 246 283 8,800 -1,440 Descending Minneapolis Center
12:53PM 44.1258 -93.4789 North 248 285 8,000 -1,140 Descending Minneapolis Center
12:54PM 44.1906 -93.4711 North 235 270 6,500 -960 Descending Minneapolis Center
12:56PM 44.3192 -93.4203 16° North 218 251 5,100 -480 Descending Minneapolis Center
12:57PM 44.3639 -93.3642 42° Northeast 216 249 5,100 -60 Level Minneapolis Center
12:58PM 44.4086 -93.3078 42° Northeast 217 250 5,000 -540 Descending Minneapolis Center
12:59PM 44.4544 -93.2522 41° Northeast 220 253 4,100 -780 Descending Minneapolis Center
01:01PM 44.5028 -93.1992 38° Northeast 222 255 3,500 -540 Descending Minneapolis Center
01:02PM 44.5500 -93.1511 36° Northeast 213 245 3,100 -240 Descending Minneapolis Center
01:03PM 44.6031 -93.0964 36° Northeast 200 230 3,100  Level Minneapolis Center
01:04PM 44.6314 -93.0311 59° Northeast 203 234 3,100  Level Minneapolis Center
01:05PM 44.6583 -92.9647 60° Northeast 199 229 3,100 -180 Level Minneapolis Center
01:06PM 44.6878 -92.9000 57° Northeast 200 230 2,800 -300 Descending Minneapolis Center
01:07PM 44.7394 -92.8906 North 189 217 2,600 -120 Descending Minneapolis Center
01:08PM 44.7908 -92.9244 335° Northwest 174 200 2,600  Level Minneapolis Center
01:09PM 44.8292 -92.9606 326° Northwest 167 192 2,600 -60 Level Minneapolis Center
01:10PM 44.8578 -92.9869 327° Northwest 122 140 2,500 -360 Descending Minneapolis Center
01:11PM 44.8808 -93.0100 325° Northwest 103 119 1,900 -540 Descending Minneapolis Center
01:12PM 44.9056 -93.0333 326° Northwest 90 104 1,300 -480 Descending Minneapolis Center
01:13PM 44.9283 -93.0556 325° Northwest 88 101 1,000 -300 Descending Minneapolis Center